Buckley Hill, United Kingdom
Current Conditions -  °F | °C
As of 10:50 AM on Sunday 26 Oct 2014 (Local Time) from EGGP Reporting Station
Scattered Clouds Scattered Clouds  
Wind Chill: 14°   Ceiling: Unl
Heat Index: 14°   Visibility: 6mi
Dew Point:   Wind: 14mph
Humidity: 72%   Direction: 210°SSW
Pressure: 29.97"   Gusts: NA
Location:  53.48°N, 2.99°W
Report Text: EGGP 260950Z 21012KT 9999 FEW030 SCT040 14/09 Q1015
Loading
Personal Weather Stations






























Interactive Weather Map
Tropical Storm Tracking
New forecast layout! Learn more

10-Day Weather Forecast

Advertisements
Track Severe Weather on mobile